createdAt,value
2018-09-19T00:00:16.067Z,100101.59
2018-09-19T00:02:44.879Z,100116.48
2018-09-19T00:05:13.318Z,100124.91
2018-09-19T00:07:42.629Z,100121.68
2018-09-19T00:10:11.095Z,100124.72
2018-09-19T00:12:39.799Z,100127.14
2018-09-19T00:15:08.298Z,100125.56
2018-09-19T00:17:37.308Z,100134.27
2018-09-19T00:20:05.848Z,100135.84
2018-09-19T00:22:34.631Z,100129.48
2018-09-19T00:25:03.177Z,100131.05
2018-09-19T00:27:31.927Z,100137.34
2018-09-19T00:30:00.431Z,100135.11
2018-09-19T00:32:29.070Z,100138.77
2018-09-19T00:34:57.711Z,100136.83
2018-09-19T00:37:26.446Z,100142.46
2018-09-19T00:39:55.235Z,100144.03
2018-09-19T00:42:46.442Z,100140.12
2018-09-19T00:45:15.012Z,100142.97
2018-09-19T00:47:43.585Z,100140.81
2018-09-19T00:50:12.198Z,100143.11
2018-09-19T00:52:54.302Z,100150.09
2018-09-19T00:55:22.878Z,100153.94
2018-09-19T00:57:51.690Z,100160.62
2018-09-19T01:00:20.447Z,100169.11
2018-09-19T01:02:53.973Z,100167.23
2018-09-19T01:05:22.535Z,100170.64
2018-09-19T01:10:18.567Z,100178.48
2018-09-19T01:12:47.169Z,100183.17
2018-09-19T01:15:15.909Z,100187.52
2018-09-19T01:17:44.476Z,100188.78
2018-09-19T01:20:13.057Z,100195.28
2018-09-19T01:22:41.693Z,100202.32
2018-09-19T01:25:10.340Z,100202.09
2018-09-19T01:27:38.851Z,100210.84
2018-09-19T01:30:07.507Z,100209.81
2018-09-19T01:32:36.220Z,100207.66
2018-09-19T01:35:04.798Z,100216.67
2018-09-19T01:37:33.345Z,100212.84
2018-09-19T01:40:02.025Z,100212.42
2018-09-19T01:42:30.865Z,100212.20
2018-09-19T01:44:59.389Z,100219.52
2018-09-19T01:47:28.341Z,100218.10
2018-09-19T01:49:56.783Z,100223.51
2018-09-19T01:52:25.841Z,100231.17
2018-09-19T01:54:54.228Z,100222.42
2018-09-19T01:57:22.735Z,100216.22
2018-09-19T01:59:51.245Z,100222.20
2018-09-19T02:02:29.089Z,100239.28
2018-09-19T02:04:58.011Z,100242.21
2018-09-19T02:07:27.146Z,100256.63
2018-09-19T02:09:55.551Z,100269.45
2018-09-19T02:12:24.106Z,100255.78
2018-09-19T02:14:52.600Z,100259.33
2018-09-19T02:17:21.099Z,100261.70
2018-09-19T02:19:49.720Z,100269.59
2018-09-19T02:22:18.227Z,100266.75
2018-09-19T02:24:46.653Z,100276.56
2018-09-19T02:27:15.557Z,100274.60
2018-09-19T02:29:44.368Z,100284.28
2018-09-19T02:32:12.904Z,100287.34
2018-09-19T02:34:41.389Z,100277.20
2018-09-19T02:37:09.861Z,100282.42
2018-09-19T02:39:38.411Z,100276.69
2018-09-19T02:42:06.848Z,100281.64
2018-09-19T02:44:35.336Z,100278.55
2018-09-19T02:47:04.140Z,100275.75
2018-09-19T02:49:32.584Z,100277.67
2018-09-19T02:52:01.216Z,100278.92
2018-09-19T02:54:30.793Z,100278.38
2018-09-19T02:56:59.504Z,100282.85
2018-09-19T02:59:28.517Z,100284.68
2018-09-19T03:01:57.171Z,100289.30
2018-09-19T03:04:25.655Z,100290.78
2018-09-19T03:06:54.119Z,100294.51
2018-09-19T03:09:22.547Z,100296.75
2018-09-19T03:11:51.125Z,100300.91
2018-09-19T03:14:19.578Z,100299.78
2018-09-19T03:16:48.062Z,100301.83
2018-09-19T03:19:16.532Z,100293.98
2018-09-19T03:21:45.153Z,100301.64
2018-09-19T03:24:14.552Z,100293.00
2018-09-19T03:26:42.974Z,100299.99
2018-09-19T03:29:11.426Z,100297.19
2018-09-19T03:31:40.572Z,100303.38
2018-09-19T03:34:09.057Z,100308.09
2018-09-19T03:36:37.513Z,100308.31
2018-09-19T03:39:08.174Z,100311.91
2018-09-19T03:41:36.599Z,100316.30
2018-09-19T03:44:05.476Z,100328.47
2018-09-19T03:46:33.936Z,100333.75
2018-09-19T03:49:02.515Z,100327.55
2018-09-19T03:51:31.038Z,100327.55
2018-09-19T03:54:01.450Z,100325.52
2018-09-19T03:56:29.887Z,100327.57
2018-09-19T03:58:58.968Z,100329.92
2018-09-19T04:01:27.735Z,100332.97
2018-09-19T04:03:56.303Z,100334.67
2018-09-19T04:06:25.052Z,100329.97
2018-09-19T04:08:56.738Z,100338.18
2018-09-19T04:11:25.214Z,100350.75
2018-09-19T04:13:53.714Z,100349.75
2018-09-19T04:16:22.189Z,100349.63
2018-09-19T04:18:50.657Z,100348.98
2018-09-19T04:21:19.162Z,100354.59
2018-09-19T04:23:48.826Z,100357.30
2018-09-19T04:26:18.222Z,100360.66
2018-09-19T04:28:48.566Z,100364.47
2018-09-19T04:31:18.367Z,100359.42
2018-09-19T04:33:47.107Z,100364.27
2018-09-19T04:36:15.822Z,100363.23
2018-09-19T04:38:44.604Z,100377.53
2018-09-19T04:41:13.132Z,100376.30
2018-09-19T04:43:42.046Z,100380.58
2018-09-19T04:46:10.525Z,100379.11
2018-09-19T04:48:38.994Z,100388.44
2018-09-19T04:51:07.897Z,100384.51
2018-09-19T04:53:36.526Z,100391.94
2018-09-19T04:56:05.362Z,100387.31
2018-09-19T04:58:34.013Z,100389.78
2018-09-19T05:01:02.569Z,100391.36
2018-09-19T05:03:31.424Z,100394.63
2018-09-19T05:05:59.990Z,100394.86
2018-09-19T05:08:28.493Z,100402.04
2018-09-19T05:10:56.994Z,100403.84
2018-09-19T05:13:25.651Z,100405.73
2018-09-19T05:15:54.124Z,100408.78
2018-09-19T05:18:22.858Z,100413.39
2018-09-19T05:20:51.467Z,100413.73
2018-09-19T05:23:20.283Z,100417.20
2018-09-19T05:25:48.786Z,100420.70
2018-09-19T05:28:17.342Z,100422.83
2018-09-19T05:30:45.825Z,100418.21
2018-09-19T05:33:14.366Z,100417.91
2018-09-19T05:35:42.896Z,100422.60
2018-09-19T05:38:11.391Z,100424.98
2018-09-19T05:40:39.894Z,100428.55
2018-09-19T05:43:08.457Z,100440.58
2018-09-19T05:45:36.989Z,100440.23
2018-09-19T05:48:05.434Z,100442.26
2018-09-19T05:50:34.258Z,100449.12
2018-09-19T05:53:02.836Z,100456.53
2018-09-19T05:55:31.568Z,100450.48
2018-09-19T05:58:00.065Z,100460.70
2018-09-19T06:00:28.662Z,100469.37
2018-09-19T06:02:57.486Z,100469.26
2018-09-19T06:05:26.837Z,100471.51
2018-09-19T06:07:55.421Z,100470.59
2018-09-19T06:10:24.261Z,100473.52
2018-09-19T06:12:57.986Z,100473.75
2018-09-19T06:15:26.912Z,100468.34
2018-09-19T06:17:55.422Z,100477.12
2018-09-19T06:20:24.012Z,100468.81
2018-09-19T06:22:52.569Z,100476.92
2018-09-19T06:25:21.134Z,100482.87
2018-09-19T06:27:50.547Z,100488.27
2018-09-19T06:30:19.221Z,100491.06
2018-09-19T06:32:48.000Z,100490.95
2018-09-19T06:35:16.428Z,100498.73
2018-09-19T06:37:45.219Z,100499.17
2018-09-19T06:40:13.792Z,100510.66
2018-09-19T06:42:42.568Z,100515.49
2018-09-19T06:45:11.209Z,100514.24
2018-09-19T06:47:39.863Z,100516.98
2018-09-19T06:50:08.415Z,100523.04
2018-09-19T06:52:36.999Z,100523.39
2018-09-19T06:55:05.719Z,100525.31
2018-09-19T06:57:34.327Z,100519.11
2018-09-19T07:00:03.436Z,100520.92
2018-09-19T07:02:32.007Z,100523.50
2018-09-19T07:05:00.697Z,100536.11
2018-09-19T07:07:39.323Z,100543.06
2018-09-19T07:10:13.083Z,100547.00
2018-09-19T07:12:41.697Z,100555.69
2018-09-19T07:15:10.416Z,100556.70
2018-09-19T07:17:38.975Z,100548.82
2018-09-19T07:20:07.498Z,100559.28
2018-09-19T07:22:36.015Z,100562.22
2018-09-19T07:25:04.772Z,100565.26
2018-09-19T07:27:33.551Z,100568.07
2018-09-19T07:30:02.278Z,100565.38
2018-09-19T07:32:30.881Z,100564.02
2018-09-19T07:34:59.338Z,100571.44
2018-09-19T07:37:27.862Z,100565.58
2018-09-19T07:39:56.420Z,100559.17
2018-09-19T07:42:25.128Z,100561.98
2018-09-19T07:44:53.900Z,100561.07
2018-09-19T07:47:22.533Z,100567.83
2018-09-19T07:49:51.176Z,100571.88
2018-09-19T07:52:19.730Z,100573.77
2018-09-19T07:54:48.364Z,100573.20
2018-09-19T07:57:16.854Z,100571.95
2018-09-19T07:59:45.503Z,100569.13
2018-09-19T08:02:15.969Z,100572.51
2018-09-19T08:04:51.113Z,100573.27
2018-09-19T08:07:19.703Z,100574.81
2018-09-19T08:09:48.269Z,100578.50
2018-09-19T08:12:17.237Z,100573.96
2018-09-19T08:17:24.334Z,100570.97
2018-09-19T08:19:53.644Z,100569.92
2018-09-19T08:22:22.791Z,100565.28
2018-09-19T08:24:51.425Z,100568.19
2018-09-19T08:27:19.937Z,100574.91
2018-09-19T08:29:48.493Z,100575.87
2018-09-19T08:32:17.272Z,100567.79
2018-09-19T08:34:47.074Z,100565.69
2018-09-19T08:37:15.554Z,100567.14
2018-09-19T08:39:44.155Z,100572.16
2018-09-19T08:42:12.848Z,100570.41
2018-09-19T08:44:45.416Z,100559.19
2018-09-19T08:47:14.186Z,100557.69
2018-09-19T08:49:42.976Z,100560.89
2018-09-19T08:52:11.485Z,100558.00
2018-09-19T08:54:40.571Z,100550.45
2018-09-19T08:57:09.564Z,100552.70
2018-09-19T08:59:38.849Z,100554.64
2018-09-19T09:02:13.854Z,100559.17
2018-09-19T09:04:45.307Z,100554.28
2018-09-19T09:07:13.819Z,100551.95
2018-09-19T09:09:42.287Z,100547.96
2018-09-19T09:12:12.498Z,100545.73
2018-09-19T09:14:41.161Z,100554.48
2018-09-19T09:17:10.291Z,100558.25
2018-09-19T09:19:38.857Z,100558.34
2018-09-19T09:22:07.594Z,100557.09
2018-09-19T09:24:37.576Z,100551.70
2018-09-19T09:27:10.251Z,100553.30
2018-09-19T09:29:38.949Z,100559.60
2018-09-19T09:32:08.007Z,100541.64
2018-09-19T09:34:35.963Z,100550.08
2018-09-19T09:37:03.995Z,100548.38
2018-09-19T09:39:31.780Z,100542.51
2018-09-19T09:41:59.646Z,100538.08
2018-09-19T09:44:27.648Z,100531.44
2018-09-19T09:46:55.449Z,100526.56
2018-09-19T09:49:23.717Z,100528.56
2018-09-19T09:51:51.975Z,100528.87
2018-09-19T09:54:19.833Z,100529.89
2018-09-19T09:56:47.545Z,100514.27
2018-09-19T09:59:15.524Z,100522.02
2018-09-19T10:01:43.721Z,100505.89
2018-09-19T10:04:12.481Z,100510.52
2018-09-19T10:06:40.706Z,100505.61
2018-09-19T10:09:09.285Z,100498.30
2018-09-19T10:11:37.145Z,100497.11
2018-09-19T10:14:11.818Z,100498.73
2018-09-19T10:16:39.620Z,100487.95
2018-09-19T10:19:09.266Z,100486.08
2018-09-19T10:21:37.902Z,100485.97
2018-09-19T10:24:06.517Z,100484.97
2018-09-19T10:26:35.419Z,100490.28
2018-09-19T10:29:03.954Z,100484.86
2018-09-19T10:31:32.623Z,100479.84
2018-09-19T10:34:02.036Z,100485.46
2018-09-19T10:36:30.592Z,100472.64
2018-09-19T10:38:59.851Z,100478.17
2018-09-19T10:41:28.698Z,100469.63
2018-09-19T10:43:57.946Z,100468.17
2018-09-19T10:46:26.792Z,100472.77
2018-09-19T10:48:55.561Z,100465.72
2018-09-19T10:51:24.150Z,100463.00
2018-09-19T10:53:53.392Z,100457.14
2018-09-19T10:56:22.023Z,100452.50
2018-09-19T10:58:50.973Z,100461.09
2018-09-19T11:01:22.902Z,100461.04
2018-09-19T11:03:51.788Z,100456.98
2018-09-19T11:06:20.664Z,100463.37
2018-09-19T11:08:49.324Z,100461.20
2018-09-19T11:11:18.237Z,100457.41
2018-09-19T11:13:46.892Z,100459.72
2018-09-19T11:16:15.509Z,100453.03
2018-09-19T11:18:44.089Z,100449.94
2018-09-19T11:21:13.220Z,100451.17
2018-09-19T11:23:45.151Z,100452.01
2018-09-19T11:26:14.257Z,100448.40
2018-09-19T11:28:42.945Z,100436.03
2018-09-19T11:31:11.852Z,100431.41
2018-09-19T11:33:45.816Z,100422.84
2018-09-19T11:36:15.101Z,100420.27
2018-09-19T11:38:43.920Z,100416.58
2018-09-19T11:41:12.623Z,100418.51
2018-09-19T11:43:41.497Z,100416.39
2018-09-19T11:46:10.936Z,100408.62
2018-09-19T11:48:41.791Z,100402.92
2018-09-19T11:51:10.934Z,100398.05
2018-09-19T11:53:40.356Z,100400.97
2018-09-19T11:56:09.607Z,100386.86
2018-09-19T11:58:49.813Z,100393.73
2018-09-19T12:01:18.779Z,100387.09
2018-09-19T12:03:47.823Z,100388.79
2018-09-19T12:06:16.595Z,100385.19
2018-09-19T12:08:45.666Z,100380.02
2018-09-19T12:11:15.016Z,100379.58
2018-09-19T12:13:43.476Z,100370.73
2018-09-19T12:16:12.066Z,100368.66
2018-09-19T12:18:40.807Z,100357.64
2018-09-19T12:21:09.798Z,100361.17
2018-09-19T12:23:38.700Z,100362.36
2018-09-19T12:26:07.348Z,100364.73
2018-09-19T12:28:36.269Z,100354.45
2018-09-19T12:31:05.486Z,100351.46
2018-09-19T12:33:34.479Z,100349.19
2018-09-19T12:36:03.147Z,100345.19
2018-09-19T12:38:31.791Z,100334.77
2018-09-19T12:41:00.331Z,100346.22
2018-09-19T12:43:29.101Z,100339.42
2018-09-19T12:45:57.892Z,100345.80
2018-09-19T12:48:26.381Z,100338.05
2018-09-19T12:50:54.868Z,100338.84
2018-09-19T12:53:24.439Z,100339.82
2018-09-19T12:55:54.244Z,100334.48
2018-09-19T12:58:23.162Z,100329.36
2018-09-19T13:00:52.466Z,100329.30
2018-09-19T13:03:21.204Z,100331.06
2018-09-19T13:05:50.656Z,100328.86
2018-09-19T13:08:19.249Z,100330.50
2018-09-19T13:10:47.936Z,100322.86
2018-09-19T13:13:16.466Z,100328.91
2018-09-19T13:15:45.380Z,100322.31
2018-09-19T13:18:13.885Z,100335.94
2018-09-19T13:20:42.789Z,100316.61
2018-09-19T13:23:11.390Z,100314.42
2018-09-19T13:25:40.454Z,100310.16
2018-09-19T13:28:09.037Z,100305.79
2018-09-19T13:30:37.963Z,100295.70
2018-09-19T13:33:06.987Z,100295.94
2018-09-19T13:35:35.543Z,100299.73
2018-09-19T13:38:04.557Z,100282.62
2018-09-19T13:40:33.223Z,100289.86
2018-09-19T13:43:02.092Z,100282.13
2018-09-19T13:45:30.630Z,100285.84
2018-09-19T13:48:00.259Z,100285.51
2018-09-19T13:50:43.914Z,100285.81
2018-09-19T13:53:12.504Z,100281.79
2018-09-19T13:55:41.116Z,100282.81
2018-09-19T13:58:10.469Z,100289.80
2018-09-19T14:00:39.346Z,100290.28
2018-09-19T14:03:07.877Z,100287.53
2018-09-19T14:05:36.388Z,100288.11
2018-09-19T14:08:06.035Z,100287.92
2018-09-19T14:10:34.973Z,100291.55
2018-09-19T14:13:03.798Z,100285.27
2018-09-19T14:15:32.423Z,100289.22
2018-09-19T14:18:01.221Z,100289.38
2018-09-19T14:20:29.711Z,100286.52
2018-09-19T14:22:58.412Z,100285.52
2018-09-19T14:25:26.917Z,100283.42
2018-09-19T14:27:55.653Z,100286.55
2018-09-19T14:30:24.298Z,100281.63
2018-09-19T14:32:52.936Z,100279.70
2018-09-19T14:35:21.607Z,100277.43
2018-09-19T14:37:51.598Z,100280.20
2018-09-19T14:40:20.269Z,100276.86
2018-09-19T14:42:58.523Z,100272.88
2018-09-19T14:45:27.066Z,100270.27
2018-09-19T14:47:55.887Z,100269.58
2018-09-19T14:50:24.986Z,100269.43
2018-09-19T14:52:53.819Z,100262.91
2018-09-19T14:55:22.554Z,100260.66
2018-09-19T14:57:51.250Z,100266.79
2018-09-19T15:00:20.254Z,100261.34
2018-09-19T15:02:49.457Z,100262.06
2018-09-19T15:05:18.763Z,100258.97
2018-09-19T15:07:47.443Z,100260.41
2018-09-19T15:10:15.970Z,100257.95
2018-09-19T15:12:44.634Z,100255.47
2018-09-19T15:15:13.600Z,100262.12
2018-09-19T15:17:42.300Z,100259.84
2018-09-19T15:20:11.058Z,100260.70
2018-09-19T15:22:39.771Z,100263.66
2018-09-19T15:25:08.537Z,100266.20
2018-09-19T15:27:38.021Z,100266.84
2018-09-19T15:30:07.129Z,100264.28
2018-09-19T15:32:36.360Z,100265.88
2018-09-19T15:35:06.210Z,100266.80
2018-09-19T15:37:34.932Z,100271.14
2018-09-19T15:40:03.484Z,100270.95
2018-09-19T15:42:32.363Z,100266.32
2018-09-19T15:45:02.039Z,100271.41
2018-09-19T15:47:30.759Z,100273.80
2018-09-19T15:49:59.385Z,100271.71
2018-09-19T15:52:31.944Z,100275.60
2018-09-19T15:55:00.784Z,100280.70
2018-09-19T15:57:30.648Z,100272.72
2018-09-19T16:00:00.287Z,100275.10
2018-09-19T16:02:29.080Z,100275.13
2018-09-19T16:05:00.662Z,100277.34
2018-09-19T16:07:31.123Z,100283.01
2018-09-19T16:09:59.731Z,100274.64
2018-09-19T16:12:28.368Z,100277.47
2018-09-19T16:14:56.952Z,100276.19
2018-09-19T16:17:25.395Z,100274.24
2018-09-19T16:19:53.970Z,100271.73
2018-09-19T16:22:22.532Z,100272.30
2018-09-19T16:24:52.618Z,100270.19
2018-09-19T16:27:21.050Z,100272.73
2018-09-19T16:29:49.533Z,100272.17
2018-09-19T16:32:18.246Z,100277.06
2018-09-19T16:34:46.832Z,100281.80
2018-09-19T16:37:15.348Z,100287.12
2018-09-19T16:39:44.028Z,100281.06
2018-09-19T16:42:12.709Z,100283.44
2018-09-19T16:44:41.278Z,100279.34
2018-09-19T16:47:11.544Z,100285.41
2018-09-19T16:49:40.027Z,100285.23
2018-09-19T16:52:08.674Z,100286.64
2018-09-19T16:54:37.203Z,100279.61
2018-09-19T16:57:05.833Z,100277.48
2018-09-19T16:59:34.260Z,100275.94
2018-09-19T17:02:03.011Z,100278.08
2018-09-19T17:04:31.749Z,100280.63
2018-09-19T17:07:01.347Z,100279.27
2018-09-19T17:09:30.186Z,100280.08
2018-09-19T17:11:58.848Z,100288.69
2018-09-19T17:14:27.467Z,100286.95
2018-09-19T17:16:56.195Z,100282.10
2018-09-19T17:19:24.982Z,100289.13
2018-09-19T17:21:53.624Z,100291.50
2018-09-19T17:24:22.421Z,100288.97
2018-09-19T17:26:50.907Z,100300.06
2018-09-19T17:29:19.588Z,100300.30
2018-09-19T17:31:48.374Z,100303.02
2018-09-19T17:34:17.310Z,100302.82
2018-09-19T17:36:46.069Z,100309.27
2018-09-19T17:39:14.629Z,100309.06
2018-09-19T17:41:43.628Z,100311.62
2018-09-19T17:44:12.315Z,100312.78
2018-09-19T17:46:40.902Z,100308.50
2018-09-19T17:49:09.637Z,100320.19
2018-09-19T17:51:40.148Z,100320.57
2018-09-19T17:54:08.950Z,100324.03
2018-09-19T17:56:39.564Z,100320.13
2018-09-19T17:59:08.552Z,100329.50
2018-09-19T18:01:37.406Z,100323.06
2018-09-19T18:04:06.174Z,100321.49
2018-09-19T18:06:34.776Z,100325.01
2018-09-19T18:09:03.415Z,100320.51
2018-09-19T18:11:32.152Z,100324.02
2018-09-19T18:14:00.794Z,100319.15
2018-09-19T18:16:29.320Z,100317.56
2018-09-19T18:18:57.899Z,100324.78
2018-09-19T18:21:27.674Z,100329.25
2018-09-19T18:23:56.908Z,100332.14
2018-09-19T18:26:25.859Z,100330.55
2018-09-19T18:28:54.429Z,100334.06
2018-09-19T18:31:23.095Z,100334.66
2018-09-19T18:33:51.944Z,100332.48
2018-09-19T18:36:20.507Z,100334.83
2018-09-19T18:38:49.260Z,100335.22
2018-09-19T18:41:17.894Z,100329.72
2018-09-19T18:43:46.504Z,100335.73
2018-09-19T18:46:15.292Z,100339.60
2018-09-19T18:48:43.868Z,100337.84
2018-09-19T18:51:14.328Z,100344.24
2018-09-19T18:53:42.989Z,100350.05
2018-09-19T18:56:11.600Z,100340.67
2018-09-19T18:58:40.275Z,100337.31
2018-09-19T19:01:09.661Z,100345.67
2018-09-19T19:03:38.303Z,100343.92
2018-09-19T19:06:07.032Z,100346.44
2018-09-19T19:08:36.703Z,100349.34
2018-09-19T19:11:05.485Z,100348.38
2018-09-19T19:13:34.141Z,100351.06
2018-09-19T19:16:02.793Z,100348.64
2018-09-19T19:18:31.440Z,100345.09
2018-09-19T19:20:59.923Z,100356.55
2018-09-19T19:23:28.800Z,100356.33
2018-09-19T19:25:57.581Z,100354.17
2018-09-19T19:28:26.763Z,100358.25
2018-09-19T19:30:55.334Z,100361.57
2018-09-19T19:33:24.024Z,100358.67
2018-09-19T19:35:52.580Z,100358.67
2018-09-19T19:38:21.194Z,100367.78
2018-09-19T19:40:49.904Z,100368.14
2018-09-19T19:43:18.355Z,100367.51
2018-09-19T19:45:46.930Z,100366.84
2018-09-19T19:48:15.714Z,100374.55
2018-09-19T19:50:44.698Z,100370.42
2018-09-19T19:53:13.736Z,100370.04
2018-09-19T19:55:42.272Z,100365.75
2018-09-19T19:58:11.448Z,100369.63
2018-09-19T20:00:40.178Z,100370.59
2018-09-19T20:03:09.075Z,100372.47
2018-09-19T20:05:38.250Z,100364.30
2018-09-19T20:08:07.256Z,100367.72
2018-09-19T20:10:37.043Z,100368.65
2018-09-19T20:13:06.239Z,100373.88
2018-09-19T20:15:34.957Z,100380.64
2018-09-19T20:18:03.757Z,100375.79
2018-09-19T20:20:32.419Z,100373.23
2018-09-19T20:23:01.010Z,100370.48
2018-09-19T20:25:29.705Z,100373.95
2018-09-19T20:27:58.542Z,100369.24
2018-09-19T20:30:28.209Z,100370.55
2018-09-19T20:32:56.877Z,100368.53
2018-09-19T20:35:25.597Z,100365.56
2018-09-19T20:37:54.351Z,100374.48
2018-09-19T20:40:23.714Z,100368.53
2018-09-19T20:42:52.989Z,100371.98
2018-09-19T20:45:21.745Z,100374.09
2018-09-19T20:47:50.401Z,100373.63
2018-09-19T20:50:19.177Z,100379.98
2018-09-19T20:52:47.778Z,100374.28
2018-09-19T20:55:16.416Z,100376.66
2018-09-19T20:57:45.422Z,100374.55
2018-09-19T21:00:14.132Z,100374.70
2018-09-19T21:02:47.862Z,100370.20
2018-09-19T21:05:16.418Z,100373.72
2018-09-19T21:07:45.104Z,100375.69
2018-09-19T21:10:13.878Z,100378.57
2018-09-19T21:12:47.493Z,100385.70
2018-09-19T21:15:16.100Z,100380.55
2018-09-19T21:17:44.773Z,100381.70
2018-09-19T21:20:13.378Z,100379.95
2018-09-19T21:22:42.032Z,100385.97
2018-09-19T21:25:10.667Z,100386.13
2018-09-19T21:27:39.338Z,100388.42
2018-09-19T21:30:07.962Z,100392.07
2018-09-19T21:32:36.500Z,100389.34
2018-09-19T21:35:05.269Z,100387.34
2018-09-19T21:37:34.096Z,100388.64
2018-09-19T21:40:02.785Z,100382.97
2018-09-19T21:42:31.354Z,100387.15
2018-09-19T21:44:59.899Z,100390.23
2018-09-19T21:47:28.349Z,100396.97
2018-09-19T21:49:57.125Z,100396.39
2018-09-19T21:52:26.186Z,100398.48
2018-09-19T21:54:54.934Z,100398.06
2018-09-19T21:57:23.515Z,100400.70
2018-09-19T21:59:52.163Z,100394.53
2018-09-19T22:02:20.843Z,100393.27
2018-09-19T22:04:49.405Z,100398.36
2018-09-19T22:07:18.006Z,100400.03
2018-09-19T22:09:46.567Z,100399.81
2018-09-19T22:12:15.050Z,100391.61
2018-09-19T22:14:44.035Z,100391.36
2018-09-19T22:17:12.553Z,100394.78
2018-09-19T22:19:41.043Z,100393.23
2018-09-19T22:22:09.515Z,100393.11
2018-09-19T22:24:37.973Z,100396.86
2018-09-19T22:27:06.458Z,100395.29
2018-09-19T22:29:34.938Z,100386.78
2018-09-19T22:32:03.859Z,100389.27
2018-09-19T22:34:32.301Z,100389.34
2018-09-19T22:37:00.790Z,100386.63
2018-09-19T22:39:29.216Z,100382.09
2018-09-19T22:41:57.642Z,100385.87
2018-09-19T22:44:26.499Z,100386.61
2018-09-19T22:46:55.419Z,100381.67
2018-09-19T22:49:24.246Z,100391.69
2018-09-19T22:51:52.795Z,100384.91
2018-09-19T22:54:21.208Z,100394.21
2018-09-19T22:56:49.650Z,100388.78
2018-09-19T22:59:18.190Z,100379.78
2018-09-19T23:01:46.961Z,100381.28
2018-09-19T23:04:15.575Z,100377.36
2018-09-19T23:06:44.169Z,100385.98
2018-09-19T23:09:12.692Z,100383.94
2018-09-19T23:11:42.281Z,100384.16
2018-09-19T23:14:45.034Z,100383.02
2018-09-19T23:17:13.757Z,100383.64
2018-09-19T23:19:42.641Z,100388.30
2018-09-19T23:22:11.533Z,100387.09
2018-09-19T23:24:40.371Z,100389.94
2018-09-19T23:27:09.062Z,100389.03
2018-09-19T23:29:38.005Z,100388.55
2018-09-19T23:32:06.799Z,100384.70
2018-09-19T23:34:35.687Z,100385.42
2018-09-19T23:37:04.475Z,100378.94
2018-09-19T23:39:33.130Z,100392.27
2018-09-19T23:42:01.977Z,100388.42
2018-09-19T23:44:31.144Z,100391.12
2018-09-19T23:47:00.139Z,100394.83
2018-09-19T23:49:29.053Z,100387.06
2018-09-19T23:51:58.431Z,100388.12
2018-09-19T23:54:27.542Z,100392.11
2018-09-19T23:56:56.930Z,100386.06
2018-09-19T23:59:25.551Z,100391.62
